DFFD/OUA METAR and TAF weather

Enter ICAO airport designator
Station Type Date Time Source
DFFD METAR 2020/08/11 18:00 UTC NOAA

DFFD 111800Z 20009KT 9999 SCT027 FEW031CB 26/24 Q1011 TEMPO TS


Station Type Date Time Source
DFFD Decoded METAR 2020/08/11 18:00 UTC NOAA

Ouagadougou, Burkina Faso (DFFD) 12-21N 001-31W 306M
Aug 11, 2020 - 02:00 PM EDT / 2020.08.11 1800 UTC
Wind: from the SSW (200 degrees) at 10 MPH (9 KT):0
Visibility: greater than 7 mile(s):0
Sky conditions: partly cloudy
Weather: Cumulonimbus clouds observed
Temperature: 78 F (26 C)
Dew Point: 75 F (24 C)
Relative Humidity: 88%
Pressure (altimeter): 29.85 in. Hg (1011 hPa)
ob: DFFD 111800Z 20009KT 9999 SCT027 FEW031CB 26/24 Q1011 TEMPO TS
cycle: 18

Station Type Date Time Source
DFFD TAF 2020/08/11 18:21 UTC NOAA

TAF TAF DFFD 111700Z 1118/1224 22010KT 9999 SCT020 PROB30
TEMPO 1118/1122 4000 TSRA SCT020 FEW033CB
TEMPO 1122/1203 4000 TSRA SCT020 FEW033CB
TEMPO 1216/1222 4000 TSRA SCT020 FEW033CB

Example: see airport list